createdAt,value
2018-10-12T00:00:13.896Z,99.90
2018-10-12T00:02:54.895Z,99.90
2018-10-12T00:05:35.696Z,99.90
2018-10-12T00:08:16.578Z,99.90
2018-10-12T00:10:57.064Z,99.90
2018-10-12T00:13:37.892Z,99.90
2018-10-12T00:16:18.681Z,99.90
2018-10-12T00:18:59.527Z,99.90
2018-10-12T00:21:41.133Z,99.90
2018-10-12T00:24:21.982Z,99.90
2018-10-12T00:27:03.284Z,99.90
2018-10-12T00:29:44.611Z,99.90
2018-10-12T00:32:25.315Z,99.90
2018-10-12T00:35:06.308Z,99.90
2018-10-12T00:37:46.770Z,99.90
2018-10-12T00:40:27.664Z,99.90
2018-10-12T00:43:08.964Z,99.90
2018-10-12T00:45:50.021Z,99.90
2018-10-12T00:48:30.844Z,99.90
2018-10-12T00:51:11.301Z,99.90
2018-10-12T00:53:51.893Z,99.90
2018-10-12T00:56:33.171Z,99.90
2018-10-12T00:59:13.918Z,99.90
2018-10-12T01:01:55.097Z,99.90
2018-10-12T01:04:36.088Z,99.90
2018-10-12T01:07:17.124Z,99.90
2018-10-12T01:09:57.867Z,99.90
2018-10-12T01:12:38.846Z,99.90
2018-10-12T01:15:20.359Z,99.90
2018-10-12T01:18:00.930Z,99.90
2018-10-12T01:20:41.661Z,99.90
2018-10-12T01:23:23.166Z,99.90
2018-10-12T01:26:03.780Z,99.90
2018-10-12T01:28:48.711Z,99.90
2018-10-12T01:31:29.424Z,99.90
2018-10-12T01:34:10.525Z,99.90
2018-10-12T01:36:51.095Z,99.90
2018-10-12T01:39:31.750Z,99.90
2018-10-12T01:42:12.919Z,99.90
2018-10-12T01:44:54.136Z,99.90
2018-10-12T01:47:35.413Z,99.90
2018-10-12T01:50:16.236Z,99.90
2018-10-12T01:52:56.815Z,99.90
2018-10-12T01:55:37.928Z,99.90
2018-10-12T01:58:18.816Z,99.90
2018-10-12T02:01:00.109Z,99.90
2018-10-12T02:03:41.055Z,99.90
2018-10-12T02:06:21.779Z,99.90
2018-10-12T02:09:02.176Z,99.90
2018-10-12T02:11:44.044Z,99.90
2018-10-12T02:14:25.661Z,99.90
2018-10-12T02:17:06.727Z,99.90
2018-10-12T02:19:47.915Z,99.90
2018-10-12T02:22:29.001Z,99.90
2018-10-12T02:25:11.139Z,99.90
2018-10-12T02:27:52.376Z,99.90
2018-10-12T02:30:33.599Z,99.90
2018-10-12T02:33:14.666Z,99.90
2018-10-12T02:35:55.693Z,99.90
2018-10-12T02:38:36.700Z,99.90
2018-10-12T02:41:17.788Z,99.90
2018-10-12T02:43:58.616Z,99.90
2018-10-12T02:46:39.076Z,99.90
2018-10-12T02:49:20.057Z,99.90
2018-10-12T02:52:00.832Z,99.90
2018-10-12T02:54:43.138Z,99.90
2018-10-12T02:57:24.968Z,99.90
2018-10-12T03:00:05.629Z,99.90
2018-10-12T03:02:46.872Z,99.90
2018-10-12T03:05:27.638Z,99.90
2018-10-12T03:08:08.587Z,99.90
2018-10-12T03:10:50.103Z,99.90
2018-10-12T03:13:31.069Z,99.90
2018-10-12T03:16:13.004Z,99.90
2018-10-12T03:18:53.595Z,99.90
2018-10-12T03:21:34.324Z,99.90
2018-10-12T03:24:15.452Z,99.90
2018-10-12T03:26:56.884Z,99.90
2018-10-12T03:29:38.125Z,99.90
2018-10-12T03:32:19.408Z,99.90
2018-10-12T03:35:00.505Z,99.90
2018-10-12T03:37:41.640Z,99.90
2018-10-12T03:40:22.575Z,99.90
2018-10-12T03:43:03.356Z,99.90
2018-10-12T03:45:44.885Z,99.90
2018-10-12T03:48:25.845Z,99.90
2018-10-12T03:51:07.179Z,99.90
2018-10-12T03:53:48.243Z,99.90
2018-10-12T03:56:29.237Z,99.90
2018-10-12T03:59:10.368Z,99.90
2018-10-12T04:01:51.565Z,99.90
2018-10-12T04:04:33.371Z,99.90
2018-10-12T04:07:16.854Z,99.90
2018-10-12T04:09:57.854Z,99.90
2018-10-12T04:12:39.032Z,99.90
2018-10-12T04:15:20.930Z,99.90
2018-10-12T04:18:01.876Z,99.90
2018-10-12T04:20:42.872Z,99.90
2018-10-12T04:23:24.497Z,99.90
2018-10-12T04:26:06.018Z,99.90
2018-10-12T04:28:47.591Z,99.90
2018-10-12T04:31:29.359Z,99.90
2018-10-12T04:34:10.541Z,99.90
2018-10-12T04:36:51.868Z,99.90
2018-10-12T04:39:59.124Z,99.90
2018-10-12T04:42:41.113Z,99.90
2018-10-12T04:45:22.028Z,99.90
2018-10-12T04:48:03.541Z,99.90
2018-10-12T04:50:44.628Z,99.90
2018-10-12T04:53:25.677Z,99.90
2018-10-12T04:56:13.273Z,99.90
2018-10-12T04:58:54.532Z,99.90
2018-10-12T05:01:35.666Z,99.90
2018-10-12T05:04:16.961Z,99.90
2018-10-12T05:06:57.805Z,99.90
2018-10-12T05:09:38.832Z,99.90
2018-10-12T05:12:20.004Z,99.90
2018-10-12T05:15:00.856Z,99.90
2018-10-12T05:17:41.925Z,99.90
2018-10-12T05:20:23.202Z,99.90
2018-10-12T05:23:04.581Z,99.90
2018-10-12T05:25:46.123Z,99.90
2018-10-12T05:28:27.600Z,99.90
2018-10-12T05:31:09.182Z,99.90
2018-10-12T05:33:50.545Z,99.90
2018-10-12T05:36:31.456Z,99.90
2018-10-12T05:39:14.366Z,99.90
2018-10-12T05:41:55.470Z,99.90
2018-10-12T05:44:37.099Z,99.90
2018-10-12T05:47:18.548Z,99.90
2018-10-12T05:50:07.151Z,99.90
2018-10-12T05:52:47.987Z,99.90
2018-10-12T05:55:29.599Z,99.90
2018-10-12T05:58:10.552Z,99.90
2018-10-12T06:00:51.548Z,99.90
2018-10-12T06:03:32.743Z,99.90
2018-10-12T06:06:14.083Z,99.90
2018-10-12T06:08:55.402Z,99.90
2018-10-12T06:11:36.771Z,99.90
2018-10-12T06:14:17.757Z,99.90
2018-10-12T06:16:59.016Z,99.90
2018-10-12T06:19:40.870Z,99.90
2018-10-12T06:22:21.789Z,99.90
2018-10-12T06:25:02.765Z,99.90
2018-10-12T06:27:43.831Z,99.90
2018-10-12T06:30:26.403Z,99.90
2018-10-12T06:33:07.295Z,99.90
2018-10-12T06:35:49.755Z,99.90
2018-10-12T06:38:30.799Z,99.90
2018-10-12T06:41:12.003Z,99.90
2018-10-12T06:43:52.679Z,99.90
2018-10-12T06:46:33.939Z,99.90
2018-10-12T06:49:16.619Z,99.90
2018-10-12T06:51:57.555Z,99.90
2018-10-12T06:54:38.542Z,99.90
2018-10-12T06:57:19.135Z,99.90
2018-10-12T07:00:00.384Z,99.90
2018-10-12T07:02:41.541Z,99.90
2018-10-12T07:05:22.130Z,99.90
2018-10-12T07:08:03.100Z,99.90
2018-10-12T07:10:44.217Z,99.90
2018-10-12T07:13:25.520Z,99.90
2018-10-12T07:16:06.426Z,98.80
2018-10-12T07:18:48.026Z,97.20
2018-10-12T07:21:29.005Z,95.00
2018-10-12T07:24:09.807Z,93.60
2018-10-12T07:26:52.440Z,92.70
2018-10-12T07:29:32.913Z,91.20
2018-10-12T07:32:13.804Z,90.30
2018-10-12T07:34:54.695Z,88.60
2018-10-12T07:37:36.184Z,86.80
2018-10-12T07:40:17.739Z,84.00
2018-10-12T07:42:58.671Z,80.80
2018-10-12T07:45:40.169Z,80.30
2018-10-12T07:48:21.407Z,79.60
2018-10-12T07:51:01.964Z,78.40
2018-10-12T07:53:42.473Z,75.70
2018-10-12T07:56:22.973Z,74.30
2018-10-12T07:59:03.943Z,72.70
2018-10-12T08:01:44.459Z,70.60
2018-10-12T08:04:25.026Z,67.60
2018-10-12T08:07:06.844Z,65.00
2018-10-12T08:09:47.866Z,64.20
2018-10-12T08:12:28.854Z,65.00
2018-10-12T08:15:09.939Z,63.60
2018-10-12T08:17:50.602Z,61.30
2018-10-12T08:20:31.282Z,59.10
2018-10-12T08:23:12.364Z,59.30
2018-10-12T08:25:52.920Z,58.20
2018-10-12T08:28:34.057Z,58.40
2018-10-12T08:31:15.212Z,59.00
2018-10-12T08:33:55.730Z,59.40
2018-10-12T08:36:37.283Z,58.70
2018-10-12T08:39:18.467Z,57.00
2018-10-12T08:41:59.911Z,55.00
2018-10-12T08:44:41.257Z,53.50
2018-10-12T08:47:22.085Z,53.20
2018-10-12T08:50:03.568Z,52.30
2018-10-12T08:52:45.811Z,51.40
2018-10-12T08:55:26.948Z,51.20
2018-10-12T08:58:08.401Z,49.80
2018-10-12T09:00:49.066Z,50.10
2018-10-12T09:03:29.961Z,49.70
2018-10-12T09:06:10.612Z,49.40
2018-10-12T09:08:51.649Z,48.10
2018-10-12T09:11:32.681Z,47.50
2018-10-12T09:14:13.905Z,47.20
2018-10-12T09:16:54.393Z,46.10
2018-10-12T09:19:35.368Z,46.20
2018-10-12T09:22:15.841Z,46.40
2018-10-12T09:24:57.011Z,45.10
2018-10-12T09:27:37.801Z,44.40
2018-10-12T09:30:18.488Z,44.20
2018-10-12T09:32:59.507Z,43.90
2018-10-12T09:35:40.063Z,43.50
2018-10-12T09:38:20.943Z,43.30
2018-10-12T09:41:01.821Z,43.30
2018-10-12T09:43:42.789Z,42.90
2018-10-12T09:46:23.738Z,42.70
2018-10-12T09:49:04.613Z,42.90
2018-10-12T09:51:45.362Z,42.70
2018-10-12T09:54:25.835Z,41.90
2018-10-12T09:57:12.225Z,41.20
2018-10-12T09:59:53.093Z,40.80
2018-10-12T10:02:39.416Z,40.60
2018-10-12T10:05:20.301Z,40.90
2018-10-12T10:08:01.657Z,40.30
2018-10-12T10:10:42.450Z,40.90
2018-10-12T10:13:23.340Z,40.70
2018-10-12T10:16:04.211Z,40.30
2018-10-12T10:18:45.473Z,39.30
2018-10-12T10:21:26.413Z,39.80
2018-10-12T10:24:07.165Z,41.00
2018-10-12T10:26:48.949Z,41.30
2018-10-12T10:29:29.522Z,41.80
2018-10-12T10:32:10.180Z,40.00
2018-10-12T10:34:51.391Z,39.80
2018-10-12T10:37:31.813Z,39.50
2018-10-12T10:40:13.083Z,40.60
2018-10-12T10:42:53.702Z,40.80
2018-10-12T10:45:35.402Z,41.50
2018-10-12T10:48:16.326Z,41.00
2018-10-12T10:50:57.293Z,40.80
2018-10-12T10:53:38.223Z,41.40
2018-10-12T10:56:18.889Z,43.10
2018-10-12T10:59:00.154Z,44.60
2018-10-12T11:01:41.259Z,46.50
2018-10-12T11:04:21.899Z,48.30
2018-10-12T11:07:03.583Z,47.10
2018-10-12T11:09:44.358Z,44.60
2018-10-12T11:12:25.222Z,42.40
2018-10-12T11:15:06.773Z,41.40
2018-10-12T11:17:48.304Z,40.60
2018-10-12T11:20:28.901Z,39.10
2018-10-12T11:23:09.838Z,38.40
2018-10-12T11:25:50.612Z,39.40
2018-10-12T11:28:32.468Z,39.70
2018-10-12T11:31:13.332Z,39.30
2018-10-12T11:33:53.914Z,38.70
2018-10-12T11:36:34.484Z,38.80
2018-10-12T11:39:16.146Z,38.50
2018-10-12T11:41:57.496Z,38.80
2018-10-12T11:44:38.109Z,38.70
2018-10-12T11:47:19.605Z,38.30
2018-10-12T11:50:00.661Z,37.90
2018-10-12T11:52:41.588Z,38.00
2018-10-12T11:55:22.284Z,38.70
2018-10-12T11:58:03.609Z,38.10
2018-10-12T12:00:44.703Z,38.50
2018-10-12T12:03:25.391Z,39.20
2018-10-12T12:06:05.803Z,38.10
2018-10-12T12:08:46.226Z,38.60
2018-10-12T12:11:27.079Z,38.40
2018-10-12T12:14:08.372Z,38.80
2018-10-12T12:16:49.675Z,37.70
2018-10-12T12:19:30.663Z,38.50
2018-10-12T12:22:11.900Z,38.90
2018-10-12T12:24:52.343Z,38.30
2018-10-12T12:27:33.572Z,38.00
2018-10-12T12:30:14.456Z,37.90
2018-10-12T12:32:55.446Z,38.70
2018-10-12T12:35:36.566Z,40.20
2018-10-12T12:38:17.291Z,40.10
2018-10-12T12:40:58.222Z,39.30
2018-10-12T12:43:39.176Z,39.00
2018-10-12T12:46:20.080Z,39.20
2018-10-12T12:49:01.493Z,39.20
2018-10-12T12:51:42.569Z,39.80
2018-10-12T12:54:23.128Z,39.80
2018-10-12T12:57:03.607Z,39.60
2018-10-12T12:59:44.373Z,39.10
2018-10-12T13:02:25.407Z,39.00
2018-10-12T13:05:07.030Z,39.70
2018-10-12T13:07:47.912Z,39.60
2018-10-12T13:10:28.870Z,40.90
2018-10-12T13:13:10.291Z,41.70
2018-10-12T13:15:50.966Z,41.60
2018-10-12T13:18:31.932Z,41.40
2018-10-12T13:21:12.791Z,41.40
2018-10-12T13:23:53.503Z,41.20
2018-10-12T13:26:34.725Z,41.10
2018-10-12T13:29:15.327Z,41.20
2018-10-12T13:31:56.286Z,41.70
2018-10-12T13:34:38.042Z,42.00
2018-10-12T13:37:19.021Z,42.30
2018-10-12T13:40:00.159Z,42.00
2018-10-12T13:42:41.054Z,41.80
2018-10-12T13:45:22.355Z,41.50
2018-10-12T13:48:03.533Z,41.80
2018-10-12T13:50:44.288Z,42.00
2018-10-12T13:53:24.795Z,43.10
2018-10-12T13:56:05.796Z,44.00
2018-10-12T13:58:46.792Z,43.40
2018-10-12T14:01:27.915Z,43.20
2018-10-12T14:04:08.408Z,43.70
2018-10-12T14:06:49.720Z,44.90
2018-10-12T14:09:31.205Z,45.20
2018-10-12T14:12:12.225Z,45.30
2018-10-12T14:14:53.281Z,45.30
2018-10-12T14:17:34.279Z,45.30
2018-10-12T14:20:15.161Z,45.40
2018-10-12T14:22:55.987Z,44.90
2018-10-12T14:25:37.088Z,46.10
2018-10-12T14:28:18.106Z,47.10
2018-10-12T14:30:59.198Z,49.00
2018-10-12T14:33:41.401Z,50.80
2018-10-12T14:36:23.938Z,51.90
2018-10-12T14:39:08.414Z,52.90
2018-10-12T14:41:49.383Z,53.70
2018-10-12T14:44:30.647Z,53.90
2018-10-12T14:47:11.443Z,54.40
2018-10-12T14:49:52.798Z,54.50
2018-10-12T14:52:34.205Z,54.50
2018-10-12T14:55:15.609Z,54.80
2018-10-12T14:57:56.563Z,53.90
2018-10-12T15:00:37.327Z,53.30
2018-10-12T15:03:17.998Z,52.90
2018-10-12T15:05:58.853Z,53.90
2018-10-12T15:08:40.044Z,54.50
2018-10-12T15:11:20.667Z,55.80
2018-10-12T15:14:02.102Z,56.70
2018-10-12T15:16:42.661Z,58.30
2018-10-12T15:19:23.880Z,58.50
2018-10-12T15:22:04.347Z,59.20
2018-10-12T15:24:45.413Z,60.00
2018-10-12T15:27:26.084Z,59.60
2018-10-12T15:30:07.284Z,60.00
2018-10-12T15:32:48.210Z,61.30
2018-10-12T15:35:29.487Z,60.70
2018-10-12T15:38:10.563Z,61.40
2018-10-12T15:40:51.704Z,61.80
2018-10-12T15:43:32.208Z,61.70
2018-10-12T15:46:12.665Z,62.40
2018-10-12T15:48:53.250Z,62.80
2018-10-12T15:51:34.198Z,63.10
2018-10-12T15:54:15.560Z,63.80
2018-10-12T15:56:56.559Z,64.00
2018-10-12T15:59:38.110Z,64.70
2018-10-12T16:02:18.980Z,65.10
2018-10-12T16:04:59.703Z,65.70
2018-10-12T16:07:40.487Z,66.20
2018-10-12T16:10:20.966Z,66.70
2018-10-12T16:13:03.257Z,67.10
2018-10-12T16:15:44.273Z,67.50
2018-10-12T16:18:24.902Z,68.80
2018-10-12T16:21:07.811Z,68.60
2018-10-12T16:23:50.972Z,69.10
2018-10-12T16:26:31.540Z,70.60
2018-10-12T16:29:12.348Z,70.60
2018-10-12T16:31:53.441Z,72.10
2018-10-12T16:34:33.962Z,71.60
2018-10-12T16:37:14.407Z,71.80
2018-10-12T16:39:56.007Z,72.00
2018-10-12T16:42:36.929Z,73.10
2018-10-12T16:45:18.559Z,72.90
2018-10-12T16:47:59.240Z,73.50
2018-10-12T16:50:40.056Z,74.80
2018-10-12T16:53:20.625Z,74.80
2018-10-12T16:56:01.270Z,74.90
2018-10-12T16:58:42.139Z,76.50
2018-10-12T17:01:23.115Z,77.00
2018-10-12T17:04:05.657Z,77.60
2018-10-12T17:06:47.286Z,79.20
2018-10-12T17:09:28.980Z,78.50
2018-10-12T17:12:10.158Z,79.00
2018-10-12T17:14:51.157Z,79.50
2018-10-12T17:17:31.690Z,79.90
2018-10-12T17:20:12.799Z,81.10
2018-10-12T17:22:53.512Z,82.20
2018-10-12T17:25:34.608Z,82.80
2018-10-12T17:28:15.552Z,82.70
2018-10-12T17:30:56.047Z,83.90
2018-10-12T17:33:36.641Z,85.20
2018-10-12T17:36:17.505Z,84.50
2018-10-12T17:38:59.522Z,85.10
2018-10-12T17:41:40.415Z,85.10
2018-10-12T17:44:21.552Z,87.40
2018-10-12T17:47:02.926Z,86.60
2018-10-12T17:49:43.604Z,86.50
2018-10-12T17:52:24.270Z,87.60
2018-10-12T17:55:05.560Z,88.50
2018-10-12T17:57:46.526Z,89.30
2018-10-12T18:00:27.320Z,90.20
2018-10-12T18:03:08.747Z,90.30
2018-10-12T18:05:49.841Z,90.50
2018-10-12T18:08:31.560Z,90.80
2018-10-12T18:11:12.330Z,91.00
2018-10-12T18:13:53.232Z,91.60
2018-10-12T18:16:34.352Z,91.70
2018-10-12T18:19:14.916Z,92.10
2018-10-12T18:21:55.972Z,92.50
2018-10-12T18:24:37.309Z,92.80
2018-10-12T18:27:18.311Z,92.90
2018-10-12T18:30:05.939Z,93.00
2018-10-12T18:32:47.561Z,92.90
2018-10-12T18:35:28.597Z,93.30
2018-10-12T18:38:10.046Z,93.40
2018-10-12T18:40:51.190Z,93.70
2018-10-12T18:43:32.118Z,94.00
2018-10-12T18:46:13.319Z,94.70
2018-10-12T18:48:54.203Z,95.90
2018-10-12T18:51:34.719Z,96.80
2018-10-12T18:54:15.312Z,97.40
2018-10-12T18:56:56.849Z,98.20
2018-10-12T18:59:37.543Z,98.40
2018-10-12T19:02:18.603Z,97.80
2018-10-12T19:04:59.104Z,98.60
2018-10-12T19:07:40.252Z,97.70
2018-10-12T19:10:20.755Z,98.00
2018-10-12T19:13:01.322Z,98.10
2018-10-12T19:15:42.233Z,99.10
2018-10-12T19:18:23.797Z,99.50
2018-10-12T19:21:04.957Z,99.40
2018-10-12T19:23:45.519Z,99.10
2018-10-12T19:26:26.125Z,99.40
2018-10-12T19:29:07.473Z,99.00
2018-10-12T19:31:48.368Z,98.60
2018-10-12T19:34:29.284Z,98.70
2018-10-12T19:37:10.002Z,98.90
2018-10-12T19:39:50.874Z,98.80
2018-10-12T19:42:31.788Z,99.10
2018-10-12T19:45:12.782Z,99.90
2018-10-12T19:47:53.296Z,99.90
2018-10-12T19:50:34.017Z,99.90
2018-10-12T19:53:14.667Z,99.90
2018-10-12T19:55:55.759Z,99.90
2018-10-12T19:58:36.498Z,99.90
2018-10-12T20:01:17.124Z,99.90
2018-10-12T20:03:57.808Z,99.90
2018-10-12T20:06:38.335Z,99.90
2018-10-12T20:09:19.739Z,99.90
2018-10-12T20:12:01.243Z,99.90
2018-10-12T20:14:41.797Z,99.90
2018-10-12T20:17:22.443Z,99.90
2018-10-12T20:20:03.080Z,99.90
2018-10-12T20:22:43.743Z,99.90
2018-10-12T20:25:24.219Z,99.90
2018-10-12T20:28:05.255Z,99.90
2018-10-12T20:30:46.410Z,99.90
2018-10-12T20:33:27.039Z,99.90
2018-10-12T20:36:08.311Z,99.90
2018-10-12T20:38:49.323Z,99.90
2018-10-12T20:41:30.192Z,99.90
2018-10-12T20:44:11.913Z,99.90
2018-10-12T20:46:52.864Z,99.90
2018-10-12T20:49:34.146Z,99.90
2018-10-12T20:52:15.087Z,99.90
2018-10-12T20:54:56.342Z,99.90
2018-10-12T20:57:41.412Z,99.90
2018-10-12T21:00:22.280Z,99.90
2018-10-12T21:03:03.445Z,99.90
2018-10-12T21:05:43.926Z,99.90
2018-10-12T21:08:24.963Z,99.90
2018-10-12T21:11:06.247Z,99.90
2018-10-12T21:13:47.206Z,99.90
2018-10-12T21:16:27.821Z,99.90
2018-10-12T21:19:08.962Z,99.90
2018-10-12T21:21:49.796Z,99.90
2018-10-12T21:24:30.701Z,99.90
2018-10-12T21:27:11.204Z,99.90
2018-10-12T21:29:51.628Z,99.90
2018-10-12T21:32:32.206Z,99.90
2018-10-12T21:35:13.103Z,99.90
2018-10-12T21:37:53.807Z,99.90
2018-10-12T21:40:34.828Z,99.90
2018-10-12T21:43:15.925Z,99.90
2018-10-12T21:45:56.695Z,99.90
2018-10-12T21:48:37.852Z,99.90
2018-10-12T21:51:18.545Z,99.90
2018-10-12T21:53:59.082Z,99.90
2018-10-12T21:56:39.761Z,99.90
2018-10-12T21:59:21.064Z,99.90
2018-10-12T22:02:02.863Z,99.90
2018-10-12T22:04:43.522Z,99.90
2018-10-12T22:07:25.534Z,99.90
2018-10-12T22:10:06.193Z,99.90
2018-10-12T22:12:47.670Z,99.90
2018-10-12T22:15:28.545Z,99.90
2018-10-12T22:18:09.810Z,99.90
2018-10-12T22:20:50.825Z,99.90
2018-10-12T22:23:32.266Z,99.90
2018-10-12T22:26:13.194Z,99.90
2018-10-12T22:28:54.317Z,99.90
2018-10-12T22:31:35.064Z,99.90
2018-10-12T22:34:15.661Z,99.90
2018-10-12T22:36:56.675Z,99.90
2018-10-12T22:39:37.126Z,99.90
2018-10-12T22:42:18.752Z,99.90
2018-10-12T22:44:59.520Z,99.90
2018-10-12T22:47:40.441Z,99.90
2018-10-12T22:50:21.206Z,99.90
2018-10-12T22:53:02.347Z,99.90
2018-10-12T22:55:43.210Z,99.90
2018-10-12T22:58:24.837Z,99.90
2018-10-12T23:01:05.783Z,99.90
2018-10-12T23:03:46.514Z,99.90
2018-10-12T23:06:27.620Z,99.90
2018-10-12T23:09:10.691Z,99.90
2018-10-12T23:11:51.896Z,99.90
2018-10-12T23:14:32.688Z,99.90
2018-10-12T23:17:13.574Z,99.90
2018-10-12T23:19:54.477Z,99.90
2018-10-12T23:22:35.412Z,99.90
2018-10-12T23:25:17.751Z,99.90
2018-10-12T23:27:58.494Z,99.90
2018-10-12T23:30:39.806Z,99.90
2018-10-12T23:33:37.394Z,99.90
2018-10-12T23:36:18.744Z,99.90
2018-10-12T23:39:00.724Z,99.90
2018-10-12T23:41:42.146Z,99.90
2018-10-12T23:44:23.391Z,99.90
2018-10-12T23:47:04.117Z,99.90
2018-10-12T23:49:44.907Z,99.90
2018-10-12T23:52:25.468Z,99.90
2018-10-12T23:55:06.565Z,99.90
2018-10-12T23:57:48.018Z,99.90
